Time;durP1;ratioP1;P1;durP2;ratioP2;P2;SDS_P1;SDS_P2;PMS_P1;PMS_P2;Temp;Humidity;BMP_temperature;BMP_pressure;BME280_temperature;BME280_humidity;BME280_pressure;Samples;Min_cycle;Max_cycle;Signal;HPM_P1;HPM_P2
2023/03/02 00:01:37;;;;;;;10.97;7.73;;;5.40;99.90;;;;;;5072821;28;20587;-73
2023/03/02 00:04:05;;;;;;;9.67;7.27;;;5.50;99.90;;;;;;5071394;28;20268;-73
2023/03/02 00:06:33;;;;;;;10.40;7.30;;;5.50;99.90;;;;;;5071933;28;20168;-75
2023/03/02 00:09:31;;;;;;;10.03;7.00;;;5.60;99.90;;;;;;5071922;28;20560;-77
2023/03/02 00:11:57;;;;;;;11.50;7.50;;;5.50;99.90;;;;;;5068353;28;20174;-77
2023/03/02 00:14:23;;;;;;;11.03;8.00;;;5.50;99.90;;;;;;5070777;28;20175;-79
2023/03/02 00:16:49;;;;;;;12.47;8.53;;;5.50;99.90;;;;;;5074503;28;20516;-72
2023/03/02 00:19:15;;;;;;;14.77;9.93;;;5.60;99.90;;;;;;5075106;28;20546;-72
2023/03/02 00:21:41;;;;;;;13.03;8.90;;;5.60;99.90;;;;;;5073846;28;20184;-74
2023/03/02 00:24:07;;;;;;;12.23;9.17;;;5.50;99.90;;;;;;5074745;28;20172;-73
2023/03/02 00:26:34;;;;;;;12.23;9.40;;;5.50;99.90;;;;;;5075649;28;20205;-74
2023/03/02 00:29:00;;;;;;;16.53;9.43;;;5.50;99.90;;;;;;5073925;28;20599;-78
2023/03/02 00:31:26;;;;;;;14.70;9.53;;;5.50;99.90;;;;;;5075085;28;20258;-81
2023/03/02 00:33:55;;;;;;;16.23;9.60;;;5.50;99.90;;;;;;5074503;28;20171;-79
2023/03/02 00:36:22;;;;;;;15.00;10.13;;;5.50;99.90;;;;;;5075066;28;20184;-78
2023/03/02 00:38:48;;;;;;;15.43;10.00;;;5.50;99.90;;;;;;5074869;28;20624;-80
2023/03/02 00:41:15;;;;;;;15.03;9.50;;;5.50;99.90;;;;;;5075043;28;20228;-80
2023/03/02 00:43:41;;;;;;;15.20;10.00;;;5.50;99.90;;;;;;5074581;28;20247;-80
2023/03/02 00:46:18;;;;;;;17.03;10.57;;;5.40;99.90;;;;;;5074928;28;20212;-74
2023/03/02 00:48:44;;;;;;;15.90;11.03;;;5.40;99.90;;;;;;5075159;28;20186;-74
2023/03/02 00:54:04;;;;;;;17.77;11.27;;;5.50;99.90;;;;;;5072299;28;20635;-72
2023/03/02 00:56:30;;;;;;;18.53;10.87;;;5.40;99.90;;;;;;5080379;28;20534;-76
2023/03/02 00:58:56;;;;;;;16.50;10.50;;;5.50;99.90;;;;;;5082842;28;20185;-73
2023/03/02 01:01:22;;;;;;;18.37;10.20;;;5.40;99.90;;;;;;5075796;28;20294;-72
2023/03/02 01:03:47;;;;;;;17.40;11.07;;;5.40;99.90;;;;;;5074782;28;20185;-75
2023/03/02 01:06:19;;;;;;;14.70;10.50;;;5.40;99.90;;;;;;5074441;28;20175;-79
2023/03/02 01:08:45;;;;;;;16.10;10.73;;;5.50;99.90;;;;;;5074683;28;20181;-77
2023/03/02 01:11:16;;;;;;;17.97;10.97;;;5.40;99.90;;;;;;5075427;28;20259;-75
2023/03/02 01:13:42;;;;;;;18.33;11.03;;;5.40;99.90;;;;;;5073875;28;20179;-74
2023/03/02 01:16:08;;;;;;;18.83;11.33;;;5.40;99.90;;;;;;5075994;28;20184;-77
2023/03/02 01:18:37;;;;;;;18.23;10.90;;;5.40;99.90;;;;;;5079269;28;20194;-72
2023/03/02 01:21:05;;;;;;;15.17;9.93;;;5.40;99.90;;;;;;5080698;28;20663;-72
2023/03/02 01:23:31;;;;;;;15.83;10.57;;;5.50;99.90;;;;;;5074463;28;20176;-74
2023/03/02 01:25:57;;;;;;;17.23;10.17;;;5.40;99.90;;;;;;5074351;28;20655;-77
2023/03/02 01:28:23;;;;;;;16.70;10.30;;;5.40;99.90;;;;;;5074029;28;20184;-73
2023/03/02 01:30:49;;;;;;;15.97;10.93;;;5.50;99.90;;;;;;5074014;28;20178;-74
2023/03/02 01:33:15;;;;;;;16.00;11.10;;;5.50;99.90;;;;;;5073812;28;20180;-75
2023/03/02 01:35:42;;;;;;;15.47;10.60;;;5.50;99.90;;;;;;5078986;28;20197;-73
2023/03/02 01:38:08;;;;;;;18.37;11.20;;;5.50;99.90;;;;;;5078560;28;20174;-74
2023/03/02 01:40:34;;;;;;;17.27;10.53;;;5.50;99.90;;;;;;5074135;28;20222;-75
2023/03/02 01:43:03;;;;;;;17.70;11.27;;;5.40;99.90;;;;;;5073113;28;20261;-76
2023/03/02 01:45:56;;;;;;;16.80;10.90;;;5.50;99.90;;;;;;5072830;28;20174;-74
2023/03/02 01:49:01;;;;;;;15.97;10.53;;;5.60;99.90;;;;;;5072249;28;20476;-73
2023/03/02 01:51:32;;;;;;;18.33;10.90;;;5.60;99.90;;;;;;5071542;28;20191;-73
2023/03/02 01:54:03;;;;;;;17.10;10.87;;;5.60;99.90;;;;;;5073115;28;20216;-75
2023/03/02 01:56:35;;;;;;;15.83;11.30;;;5.60;99.90;;;;;;5073309;28;20159;-73
2023/03/02 01:59:06;;;;;;;17.67;11.30;;;5.50;99.90;;;;;;5073486;28;20153;-75
2023/03/02 02:01:35;;;;;;;19.27;11.47;;;5.40;99.90;;;;;;5073350;28;20211;-77
2023/03/02 02:04:01;;;;;;;18.80;11.57;;;5.50;99.90;;;;;;5072106;28;20173;-77
2023/03/02 02:06:43;;;;;;;17.17;11.43;;;5.40;99.90;;;;;;5073282;28;20267;-74
2023/03/02 02:09:14;;;;;;;17.90;11.30;;;5.40;99.90;;;;;;5073165;28;20178;-78
2023/03/02 02:11:41;;;;;;;19.93;12.13;;;5.40;99.90;;;;;;5073138;28;20213;-79
2023/03/02 02:14:07;;;;;;;17.40;11.80;;;5.40;99.90;;;;;;5073168;28;20167;-75
2023/03/02 02:16:33;;;;;;;17.73;11.73;;;5.40;99.90;;;;;;5072846;28;20708;-79
2023/03/02 02:19:00;;;;;;;19.17;11.93;;;5.40;99.90;;;;;;5072778;28;20624;-80
2023/03/02 02:21:28;;;;;;;15.87;11.07;;;5.50;99.90;;;;;;5072262;28;20214;-80
2023/03/02 02:24:08;;;;;;;14.60;8.57;;;5.50;99.90;;;;;;5072756;28;20172;-79
2023/03/02 02:26:40;;;;;;;11.23;8.10;;;5.40;99.90;;;;;;5070962;28;20263;-80
2023/03/02 02:29:29;;;;;;;10.30;7.70;;;5.50;99.90;;;;;;5071381;28;20232;-77
2023/03/02 02:32:13;;;;;;;13.33;8.30;;;5.50;99.90;;;;;;5073264;28;20503;-79
2023/03/02 02:34:48;;;;;;;14.47;7.57;;;5.30;99.90;;;;;;5072507;28;20163;-77
2023/03/02 02:37:20;;;;;;;12.37;7.97;;;5.30;99.90;;;;;;5072455;28;20207;-75
2023/03/02 02:39:48;;;;;;;13.63;7.50;;;5.40;99.90;;;;;;5071739;28;20215;-73
2023/03/02 02:42:28;;;;;;;10.43;7.60;;;5.40;99.90;;;;;;5072197;28;20223;-74
2023/03/02 02:44:59;;;;;;;12.13;8.17;;;5.30;99.90;;;;;;5072401;28;20526;-77
2023/03/02 02:47:25;;;;;;;10.67;8.10;;;5.30;99.90;;;;;;5072422;28;20171;-77
2023/03/02 02:49:53;;;;;;;10.67;7.53;;;5.30;99.90;;;;;;5075606;28;20693;-74
2023/03/02 02:52:21;;;;;;;10.20;7.50;;;5.30;99.90;;;;;;5094367;28;20200;-73
2023/03/02 02:54:51;;;;;;;12.17;8.73;;;5.30;99.90;;;;;;5084543;28;20163;-75
2023/03/02 02:57:18;;;;;;;17.13;7.90;;;5.30;99.90;;;;;;5075285;28;20236;-76
2023/03/02 02:59:51;;;;;;;11.27;7.40;;;5.20;99.90;;;;;;5079530;28;20198;-75
2023/03/02 03:02:28;;;;;;;11.60;7.70;;;5.10;99.90;;;;;;5075403;28;20692;-72
2023/03/02 03:05:02;;;;;;;9.27;7.37;;;5.20;99.90;;;;;;5072694;28;20175;-73
2023/03/02 03:07:30;;;;;;;11.40;7.87;;;5.20;99.90;;;;;;5071852;28;20194;-75
2023/03/02 03:10:21;;;;;;;8.63;7.37;;;5.20;99.90;;;;;;5072189;28;20187;-74
2023/03/02 03:12:47;;;;;;;9.13;7.20;;;5.20;99.90;;;;;;5077486;28;20291;-74
2023/03/02 03:15:13;;;;;;;11.33;8.10;;;5.10;99.90;;;;;;5072828;28;20167;-71
2023/03/02 03:17:39;;;;;;;9.87;7.30;;;5.10;99.90;;;;;;5071832;28;20181;-75
2023/03/02 03:20:09;;;;;;;11.13;8.20;;;5.20;99.90;;;;;;5071914;28;20211;-75
2023/03/02 03:22:36;;;;;;;10.23;7.80;;;5.30;99.90;;;;;;5071927;28;20183;-72
2023/03/02 03:25:03;;;;;;;11.13;8.23;;;5.40;99.90;;;;;;5071584;28;20254;-73
2023/03/02 03:27:28;;;;;;;10.53;8.03;;;5.40;99.90;;;;;;5071327;28;20163;-73
2023/03/02 03:29:54;;;;;;;11.93;8.13;;;5.30;99.90;;;;;;5071853;28;20534;-75
2023/03/02 03:32:20;;;;;;;14.30;8.30;;;5.30;99.90;;;;;;5071901;28;20582;-75
2023/03/02 03:34:46;;;;;;;10.87;7.40;;;5.30;99.90;;;;;;5071542;28;20179;-75
2023/03/02 03:37:15;;;;;;;9.57;7.73;;;5.30;99.90;;;;;;5070318;28;20646;-79
2023/03/02 03:39:42;;;;;;;11.87;7.60;;;5.40;99.90;;;;;;5071631;28;20688;-77
2023/03/02 03:42:08;;;;;;;17.40;8.97;;;5.30;99.90;;;;;;5071233;28;20225;-76
2023/03/02 03:44:34;;;;;;;10.67;7.93;;;5.40;99.90;;;;;;5071568;28;20283;-71
2023/03/02 03:47:00;;;;;;;9.53;7.00;;;5.30;99.90;;;;;;5071871;28;20179;-79
2023/03/02 03:49:26;;;;;;;10.63;8.13;;;5.40;99.90;;;;;;5071779;28;20181;-75
2023/03/02 03:51:52;;;;;;;11.70;8.10;;;5.30;99.90;;;;;;5075289;28;20641;-78
2023/03/02 03:54:18;;;;;;;12.13;8.33;;;5.30;99.90;;;;;;5075017;28;20171;-80
2023/03/02 03:56:46;;;;;;;13.07;8.23;;;5.20;99.90;;;;;;5075835;28;20175;-81
2023/03/02 03:59:16;;;;;;;10.17;7.20;;;5.30;99.90;;;;;;5074458;28;20239;-79
2023/03/02 04:01:50;;;;;;;12.13;8.60;;;5.20;99.90;;;;;;5075575;28;20261;-78
2023/03/02 04:04:25;;;;;;;10.47;7.17;;;5.10;99.90;;;;;;5074864;28;20678;-79
2023/03/02 04:06:53;;;;;;;8.97;7.40;;;5.20;99.90;;;;;;5075225;28;20231;-79
2023/03/02 04:09:19;;;;;;;12.57;8.00;;;5.20;99.90;;;;;;5075413;28;20584;-80
2023/03/02 04:11:49;;;;;;;9.87;7.50;;;5.30;99.90;;;;;;5075398;28;20254;-78
2023/03/02 04:14:16;;;;;;;10.13;7.30;;;5.20;99.90;;;;;;5075398;28;20202;-76
2023/03/02 04:16:42;;;;;;;12.07;7.63;;;5.20;99.90;;;;;;5075323;28;20230;-80
2023/03/02 04:19:09;;;;;;;9.87;6.90;;;5.30;99.90;;;;;;5075564;28;20257;-74
2023/03/02 04:21:40;;;;;;;10.27;7.10;;;5.30;99.90;;;;;;5075204;28;20203;-72
2023/03/02 04:24:07;;;;;;;11.43;7.40;;;5.30;99.90;;;;;;5078628;28;20174;-71
2023/03/02 04:26:34;;;;;;;9.23;6.87;;;5.20;99.90;;;;;;5087907;28;20185;-71
2023/03/02 04:29:01;;;;;;;11.17;7.30;;;5.20;99.90;;;;;;5077800;28;20167;-73
2023/03/02 04:31:27;;;;;;;11.57;7.57;;;5.10;99.90;;;;;;5075535;28;20168;-72
2023/03/02 04:33:53;;;;;;;10.10;6.77;;;5.10;99.90;;;;;;5073745;28;20176;-74
2023/03/02 04:36:19;;;;;;;11.83;7.27;;;5.10;99.90;;;;;;5075300;28;20196;-71
2023/03/02 04:38:46;;;;;;;11.20;7.23;;;5.10;99.90;;;;;;5075269;28;20171;-73
2023/03/02 04:41:11;;;;;;;9.53;7.33;;;5.00;99.90;;;;;;5074831;28;20212;-73
2023/03/02 04:43:37;;;;;;;12.80;7.93;;;5.10;99.90;;;;;;5074813;28;20695;-73
2023/03/02 04:46:03;;;;;;;10.33;7.67;;;5.10;99.90;;;;;;5074364;28;20625;-72
2023/03/02 04:48:29;;;;;;;13.13;8.37;;;5.10;99.90;;;;;;5070220;28;20183;-75
2023/03/02 04:50:55;;;;;;;12.00;7.57;;;5.10;99.90;;;;;;5071786;28;20183;-77
2023/03/02 04:53:20;;;;;;;13.77;7.30;;;5.10;99.90;;;;;;5073410;28;20261;-78
2023/03/02 04:55:46;;;;;;;10.27;7.47;;;5.00;99.90;;;;;;5074548;28;20191;-72
2023/03/02 04:58:13;;;;;;;10.67;7.13;;;5.00;99.90;;;;;;5073029;28;20209;-73
2023/03/02 05:00:38;;;;;;;13.03;7.93;;;5.00;99.90;;;;;;5075421;28;20227;-74
2023/03/02 05:03:04;;;;;;;10.10;7.63;;;4.90;99.90;;;;;;5075929;28;20178;-74
2023/03/02 05:05:31;;;;;;;10.43;7.67;;;4.90;99.90;;;;;;5074550;28;20196;-76
2023/03/02 05:07:57;;;;;;;12.17;8.00;;;4.90;99.90;;;;;;5074351;28;20171;-72
2023/03/02 05:10:25;;;;;;;12.80;8.00;;;5.00;99.90;;;;;;5074437;28;20538;-74
2023/03/02 05:12:56;;;;;;;12.63;8.03;;;5.00;99.90;;;;;;5074500;28;20623;-73
2023/03/02 05:15:28;;;;;;;12.57;7.97;;;5.00;99.90;;;;;;5074191;28;20527;-73
2023/03/02 05:17:54;;;;;;;10.23;7.60;;;5.00;99.90;;;;;;5073212;28;20171;-72
2023/03/02 05:20:26;;;;;;;11.87;7.93;;;5.00;99.90;;;;;;5074297;28;20215;-72
2023/03/02 05:22:57;;;;;;;10.77;7.93;;;5.10;99.90;;;;;;5074290;28;20163;-78
2023/03/02 05:25:26;;;;;;;10.73;7.77;;;5.10;99.90;;;;;;5074019;28;20169;-72
2023/03/02 05:27:52;;;;;;;10.37;6.80;;;5.10;99.90;;;;;;5074217;28;20179;-79
2023/03/02 05:30:19;;;;;;;10.47;7.87;;;5.00;99.90;;;;;;5074065;28;20223;-74
2023/03/02 05:32:45;;;;;;;12.57;7.87;;;5.00;99.90;;;;;;5073581;28;20177;-80
2023/03/02 05:35:11;;;;;;;10.23;7.23;;;5.00;99.90;;;;;;5070219;28;20171;-79
2023/03/02 05:37:41;;;;;;;10.43;7.30;;;5.00;99.90;;;;;;5073903;28;20167;-80
2023/03/02 05:40:08;;;;;;;10.57;7.93;;;5.00;99.90;;;;;;5073683;28;20199;-78
2023/03/02 05:42:34;;;;;;;11.03;7.43;;;5.00;99.90;;;;;;5073615;28;20984;-77
2023/03/02 05:45:02;;;;;;;13.10;8.17;;;5.10;99.90;;;;;;5075529;28;20168;-75
2023/03/02 05:47:28;;;;;;;15.90;8.00;;;5.10;99.90;;;;;;5075876;28;20650;-73
2023/03/02 05:49:54;;;;;;;13.27;7.40;;;5.20;99.90;;;;;;5073592;28;20250;-71
2023/03/02 05:52:19;;;;;;;12.60;7.63;;;5.20;99.90;;;;;;5073696;28;20175;-73
2023/03/02 05:54:45;;;;;;;11.90;7.67;;;5.20;99.90;;;;;;5073426;28;20176;-75
2023/03/02 05:57:11;;;;;;;8.77;7.33;;;5.30;99.90;;;;;;5073613;28;20175;-74
2023/03/02 05:59:37;;;;;;;10.37;7.30;;;5.30;99.90;;;;;;5078401;28;20183;-78
2023/03/02 06:02:03;;;;;;;11.47;7.73;;;5.30;99.90;;;;;;5075551;28;20210;-72
2023/03/02 06:04:29;;;;;;;11.27;8.27;;;5.20;99.90;;;;;;5074181;28;20526;-77
2023/03/02 06:06:54;;;;;;;12.60;7.67;;;5.30;99.90;;;;;;5073752;28;20251;-79
2023/03/02 06:09:21;;;;;;;10.97;7.67;;;5.40;99.90;;;;;;5073213;28;20695;-74
2023/03/02 06:11:47;;;;;;;13.83;8.50;;;5.50;99.90;;;;;;5071888;28;20271;-71
2023/03/02 06:14:13;;;;;;;10.27;7.70;;;5.60;99.90;;;;;;5071965;28;20171;-73
2023/03/02 06:16:39;;;;;;;13.70;8.40;;;5.60;99.90;;;;;;5071052;28;20232;-73
2023/03/02 06:19:05;;;;;;;11.33;8.10;;;5.50;99.90;;;;;;5072350;28;20171;-72
2023/03/02 06:21:30;;;;;;;13.93;7.40;;;5.50;99.90;;;;;;5072867;28;20219;-74
2023/03/02 06:23:56;;;;;;;11.20;7.90;;;5.50;99.90;;;;;;5073218;28;20176;-74
2023/03/02 06:26:22;;;;;;;10.70;8.03;;;5.50;99.90;;;;;;5073998;28;20172;-74
2023/03/02 06:28:48;;;;;;;10.67;7.67;;;5.50;99.90;;;;;;5074229;28;20164;-72
2023/03/02 06:31:14;;;;;;;14.60;8.10;;;5.50;99.90;;;;;;5072941;28;20172;-72
2023/03/02 06:33:39;;;;;;;9.53;7.20;;;5.60;99.90;;;;;;5072498;28;20175;-75
2023/03/02 06:36:05;;;;;;;10.27;7.73;;;5.70;99.90;;;;;;5071221;28;20210;-73
2023/03/02 06:38:31;;;;;;;22.00;9.60;;;5.80;99.90;;;;;;5072572;28;20251;-73
2023/03/02 06:40:58;;;;;;;17.93;8.73;;;5.80;99.90;;;;;;5070957;28;20252;-74
2023/03/02 06:43:24;;;;;;;15.70;9.33;;;5.70;99.90;;;;;;5073028;28;20227;-73
2023/03/02 06:45:49;;;;;;;17.17;9.13;;;5.80;99.90;;;;;;5073015;28;20180;-75
2023/03/02 06:48:16;;;;;;;16.97;8.97;;;5.80;99.90;;;;;;5072626;28;20632;-72
2023/03/02 06:50:42;;;;;;;9.40;7.17;;;5.90;99.90;;;;;;5072540;28;20180;-79
2023/03/02 06:53:07;;;;;;;15.17;7.93;;;5.90;99.90;;;;;;5073028;28;20175;-79
2023/03/02 06:55:33;;;;;;;9.63;7.37;;;5.90;99.90;;;;;;5072344;28;20179;-78
2023/03/02 06:57:59;;;;;;;13.30;7.10;;;5.80;99.90;;;;;;5071245;28;20180;-76
2023/03/02 07:00:26;;;;;;;11.43;7.33;;;5.80;99.90;;;;;;5073082;28;20220;-75
2023/03/02 07:02:53;;;;;;;13.00;7.30;;;5.80;99.90;;;;;;5083548;28;20195;-75
2023/03/02 07:05:20;;;;;;;9.20;7.27;;;5.80;99.90;;;;;;5075508;28;20258;-79
2023/03/02 07:07:46;;;;;;;13.77;7.07;;;5.80;99.90;;;;;;5072908;28;20187;-78
2023/03/02 07:10:12;;;;;;;9.00;7.00;;;5.80;99.90;;;;;;5072517;28;20181;-73
2023/03/02 07:12:39;;;;;;;10.40;7.20;;;5.80;99.90;;;;;;5070928;28;20175;-74
2023/03/02 07:15:09;;;;;;;9.63;7.27;;;5.80;99.90;;;;;;5072258;28;20169;-74
2023/03/02 07:17:36;;;;;;;12.97;7.57;;;5.80;99.90;;;;;;5072713;28;20843;-77
2023/03/02 07:20:05;;;;;;;10.83;7.80;;;5.90;99.90;;;;;;5072352;28;20197;-77
2023/03/02 07:22:32;;;;;;;13.47;8.70;;;6.00;99.90;;;;;;5072183;28;20180;-77
2023/03/02 07:24:57;;;;;;;11.20;8.10;;;6.00;99.90;;;;;;5072077;28;20716;-74
2023/03/02 07:27:23;;;;;;;11.77;7.67;;;6.20;99.90;;;;;;5072159;28;20206;-74
2023/03/02 07:29:49;;;;;;;15.30;10.37;;;6.20;99.90;;;;;;5072452;28;20194;-74
2023/03/02 07:32:15;;;;;;;21.17;11.57;;;6.20;99.90;;;;;;5071022;28;20257;-72
2023/03/02 07:34:40;;;;;;;10.73;8.13;;;6.20;99.90;;;;;;5079152;28;20168;-75
2023/03/02 07:37:06;;;;;;;11.53;8.60;;;6.30;99.90;;;;;;5077476;28;20187;-76
2023/03/02 07:39:32;;;;;;;11.13;8.17;;;6.40;99.90;;;;;;5072185;28;20180;-76
2023/03/02 07:42:03;;;;;;;12.03;8.33;;;6.50;99.90;;;;;;5071947;28;20175;-80
2023/03/02 07:44:29;;;;;;;11.57;8.03;;;6.70;99.90;;;;;;5072003;28;20176;-79
2023/03/02 07:46:55;;;;;;;11.33;7.80;;;6.80;99.90;;;;;;5072244;28;20186;-80
2023/03/02 07:49:21;;;;;;;11.40;7.17;;;6.80;99.90;;;;;;5070726;28;20171;-75
2023/03/02 07:51:47;;;;;;;13.13;7.93;;;6.80;99.90;;;;;;5072147;28;20200;-77
2023/03/02 07:54:12;;;;;;;12.57;8.93;;;6.80;99.90;;;;;;5072372;28;20190;-79
2023/03/02 07:56:38;;;;;;;13.40;9.33;;;6.80;99.90;;;;;;5071906;28;20659;-74
2023/03/02 07:59:04;;;;;;;15.17;9.47;;;6.80;99.90;;;;;;5070611;28;20266;-72
2023/03/02 08:01:30;;;;;;;16.73;10.10;;;6.80;99.90;;;;;;5071801;28;20228;-74
2023/03/02 08:03:55;;;;;;;14.87;10.30;;;6.80;99.90;;;;;;5071762;28;20176;-73
2023/03/02 08:06:21;;;;;;;13.13;10.30;;;6.80;99.90;;;;;;5071702;28;20168;-72
2023/03/02 08:08:47;;;;;;;21.40;10.80;;;6.80;99.90;;;;;;5071711;28;20191;-71
2023/03/02 08:11:16;;;;;;;13.57;10.63;;;6.90;99.90;;;;;;5071664;28;20185;-74
2023/03/02 08:13:42;;;;;;;16.90;9.80;;;7.00;99.90;;;;;;5071748;28;20174;-74
2023/03/02 08:16:09;;;;;;;16.67;10.83;;;7.00;99.90;;;;;;5071595;28;20180;-78
2023/03/02 08:18:35;;;;;;;16.43;11.00;;;7.00;99.90;;;;;;5071754;28;20173;-73
2023/03/02 08:21:01;;;;;;;18.57;10.10;;;7.00;99.90;;;;;;5070156;28;20709;-73
2023/03/02 08:23:27;;;;;;;15.37;10.47;;;7.20;99.90;;;;;;5071651;28;20170;-73
2023/03/02 08:25:53;;;;;;;16.43;10.67;;;7.30;99.90;;;;;;5071941;28;20306;-75
2023/03/02 08:28:21;;;;;;;16.53;10.03;;;7.40;99.90;;;;;;5071755;28;20172;-79
2023/03/02 08:31:00;;;;;;;16.87;10.57;;;7.40;99.90;;;;;;5071572;28;20171;-77
2023/03/02 08:33:28;;;;;;;15.97;10.37;;;7.50;99.90;;;;;;5071357;28;20176;-78
2023/03/02 08:36:01;;;;;;;12.87;8.87;;;7.70;99.90;;;;;;5071633;28;20206;-79
2023/03/02 08:38:27;;;;;;;16.03;10.40;;;7.80;99.90;;;;;;5075396;28;20227;-75
2023/03/02 08:40:54;;;;;;;14.43;9.93;;;7.80;99.90;;;;;;5075180;28;20205;-76
2023/03/02 08:43:21;;;;;;;11.27;9.40;;;7.90;99.90;;;;;;5075165;28;20218;-74
2023/03/02 08:45:51;;;;;;;14.03;9.47;;;7.90;99.90;;;;;;5074552;28;20187;-78
2023/03/02 08:48:18;;;;;;;12.90;9.27;;;8.00;99.90;;;;;;5076472;28;20174;-73
2023/03/02 08:50:44;;;;;;;15.13;9.10;;;7.90;99.90;;;;;;5075127;28;20177;-74
2023/03/02 08:53:10;;;;;;;13.23;9.40;;;7.90;99.90;;;;;;5075232;28;20232;-74
2023/03/02 08:55:36;;;;;;;14.53;9.27;;;7.90;99.90;;;;;;5075201;28;20205;-75
2023/03/02 08:58:03;;;;;;;14.07;9.67;;;7.90;99.90;;;;;;5073948;28;20181;-74
2023/03/02 09:00:29;;;;;;;13.73;9.90;;;8.00;99.90;;;;;;5075880;28;20210;-73
2023/03/02 09:02:54;;;;;;;11.77;9.27;;;8.00;99.90;;;;;;5077936;28;20550;-75
2023/03/02 09:05:20;;;;;;;13.50;9.37;;;8.10;99.90;;;;;;5081801;28;20189;-73
2023/03/02 09:07:46;;;;;;;11.33;8.97;;;8.30;99.90;;;;;;5083688;28;20175;-74
2023/03/02 09:10:11;;;;;;;13.37;9.50;;;8.40;99.90;;;;;;5077744;28;20229;-74
2023/03/02 09:12:37;;;;;;;13.17;9.20;;;8.50;99.90;;;;;;5074876;28;20191;-73
2023/03/02 09:15:03;;;;;;;12.97;9.23;;;8.60;99.90;;;;;;5074402;28;20261;-75
2023/03/02 09:17:29;;;;;;;12.50;9.60;;;8.60;99.90;;;;;;5074472;28;20265;-74
2023/03/02 09:19:55;;;;;;;14.23;9.70;;;8.60;99.90;;;;;;5072973;28;20752;-75
2023/03/02 09:22:20;;;;;;;14.27;9.77;;;8.60;99.90;;;;;;5072966;28;20690;-74
2023/03/02 09:24:46;;;;;;;14.53;9.87;;;8.50;99.90;;;;;;5074308;28;20669;-73
2023/03/02 09:27:12;;;;;;;12.93;10.10;;;8.60;99.90;;;;;;5074050;28;20163;-74
2023/03/02 09:29:38;;;;;;;11.80;8.70;;;8.70;99.90;;;;;;5074077;28;20193;-76
2023/03/02 09:32:03;;;;;;;14.40;9.77;;;8.80;99.90;;;;;;5072751;28;20190;-74
2023/03/02 09:34:29;;;;;;;14.53;10.07;;;9.00;99.90;;;;;;5074125;28;20174;-74
2023/03/02 09:36:55;;;;;;;14.13;9.13;;;9.20;99.90;;;;;;5074041;28;20257;-76
2023/03/02 09:39:21;;;;;;;17.83;9.60;;;9.20;99.90;;;;;;5072709;28;20209;-74
2023/03/02 09:42:13;;;;;;;15.33;9.80;;;9.20;99.90;;;;;;5073765;28;20234;-74
2023/03/02 09:44:54;;;;;;;12.63;8.53;;;9.20;99.90;;;;;;5073776;28;20240;-76
2023/03/02 09:47:46;;;;;;;14.13;9.00;;;9.20;99.90;;;;;;5073455;28;20167;-78
2023/03/02 09:50:32;;;;;;;12.90;9.17;;;9.20;99.90;;;;;;5074044;28;20275;-79
2023/03/02 09:53:12;;;;;;;13.87;9.47;;;9.30;99.90;;;;;;5073797;28;20523;-76
2023/03/02 09:55:38;;;;;;;11.07;8.23;;;9.40;99.90;;;;;;5074018;28;20159;-79
2023/03/02 09:58:15;;;;;;;11.20;8.47;;;9.50;99.90;;;;;;5073760;28;20182;-76
2023/03/02 10:00:42;;;;;;;11.47;8.50;;;9.70;99.90;;;;;;5072383;28;20211;-74
2023/03/02 10:03:21;;;;;;;11.30;8.67;;;9.60;99.90;;;;;;5074095;28;20175;-72
2023/03/02 10:05:54;;;;;;;10.50;8.70;;;9.80;99.90;;;;;;5073600;28;20172;-75
2023/03/02 10:08:23;;;;;;;14.17;9.50;;;9.90;99.90;;;;;;5073382;28;20215;-75
2023/03/02 10:10:48;;;;;;;12.00;8.73;;;9.80;99.90;;;;;;5073314;28;20175;-74
2023/03/02 10:13:22;;;;;;;13.87;8.73;;;9.80;99.90;;;;;;5073266;28;20180;-74
2023/03/02 10:16:11;;;;;;;12.37;8.73;;;9.70;99.90;;;;;;5073247;28;20172;-75
2023/03/02 10:18:45;;;;;;;10.93;8.73;;;9.50;99.90;;;;;;5073503;28;20167;-73
2023/03/02 10:21:24;;;;;;;10.73;8.17;;;9.40;99.90;;;;;;5073293;28;20195;-75
2023/03/02 10:24:00;;;;;;;11.57;8.50;;;9.50;99.90;;;;;;5073438;28;20157;-79
2023/03/02 10:26:37;;;;;;;11.77;8.37;;;9.50;99.90;;;;;;5073499;28;20687;-76
2023/03/02 10:29:40;;;;;;;12.77;9.17;;;9.50;99.90;;;;;;5073604;28;20291;-79
2023/03/02 10:32:18;;;;;;;13.80;8.60;;;9.40;99.90;;;;;;5073478;28;20197;-75
2023/03/02 10:34:45;;;;;;;11.77;8.30;;;9.30;99.90;;;;;;5072176;28;20262;-75
2023/03/02 10:37:17;;;;;;;12.03;8.37;;;9.20;99.90;;;;;;5073806;28;20178;-74
2023/03/02 10:39:42;;;;;;;10.90;8.73;;;9.10;99.90;;;;;;5077946;28;20516;-73
2023/03/02 10:42:21;;;;;;;11.27;8.07;;;9.10;99.90;;;;;;5082485;28;20242;-76
2023/03/02 10:44:53;;;;;;;11.63;8.80;;;9.30;99.90;;;;;;5074141;28;20187;-75
2023/03/02 10:47:22;;;;;;;10.43;7.90;;;9.50;99.90;;;;;;5072815;28;20173;-74
2023/03/02 10:49:49;;;;;;;11.27;8.47;;;9.60;99.90;;;;;;5073418;28;20228;-77
2023/03/02 10:52:18;;;;;;;11.30;8.67;;;9.70;99.90;;;;;;5073436;28;20207;-72
2023/03/02 10:54:44;;;;;;;9.63;7.97;;;9.90;99.90;;;;;;5073303;28;20264;-74
2023/03/02 10:57:36;;;;;;;10.87;7.90;;;10.00;99.90;;;;;;5071829;28;20657;-73
2023/03/02 11:00:22;;;;;;;13.50;8.80;;;10.10;99.90;;;;;;5073081;28;20203;-77
2023/03/02 11:02:55;;;;;;;10.87;8.97;;;10.20;99.90;;;;;;5080500;28;20179;-75
2023/03/02 11:05:37;;;;;;;11.63;9.03;;;10.40;99.90;;;;;;5080273;28;20171;-79
2023/03/02 11:08:09;;;;;;;11.13;9.13;;;10.50;99.90;;;;;;5073089;28;20179;-78
2023/03/02 11:10:49;;;;;;;14.30;8.43;;;10.50;99.90;;;;;;5072738;28;20627;-79
2023/03/02 11:13:35;;;;;;;12.07;8.57;;;10.50;99.90;;;;;;5076367;28;20187;-80
2023/03/02 11:16:03;;;;;;;12.80;8.27;;;10.50;99.90;;;;;;5071193;28;20254;-78
2023/03/02 11:19:04;;;;;;;13.10;8.77;;;10.50;99.90;;;;;;5072325;28;20164;-79
2023/03/02 11:21:46;;;;;;;11.57;8.53;;;10.50;99.90;;;;;;5039596;28;20231;-79
2023/03/02 11:24:20;;;;;;;12.07;8.27;;;10.60;99.90;;;;;;5072531;28;20156;-80
2023/03/02 11:26:53;;;;;;;13.60;8.83;;;10.60;99.90;;;;;;5072474;28;20223;-75
2023/03/02 11:29:59;;;;;;;11.63;8.83;;;10.70;99.90;;;;;;5072124;28;20159;-72
2023/03/02 11:32:33;;;;;;;13.83;8.83;;;10.70;99.90;;;;;;5072227;28;20175;-77
2023/03/02 11:35:13;;;;;;;10.50;8.33;;;10.70;99.90;;;;;;5070692;28;20180;-74
2023/03/02 11:37:50;;;;;;;12.23;8.33;;;10.60;99.90;;;;;;5070789;28;20257;-73
2023/03/02 11:40:20;;;;;;;10.20;8.50;;;10.60;99.90;;;;;;5072241;28;20744;-73
2023/03/02 11:42:46;;;;;;;12.17;8.47;;;10.60;99.90;;;;;;5071974;28;20239;-75
2023/03/02 11:45:12;;;;;;;18.13;10.67;;;10.70;99.90;;;;;;5072071;28;20177;-72
2023/03/02 11:47:39;;;;;;;17.37;9.80;;;10.60;99.90;;;;;;5070715;28;20176;-71
2023/03/02 11:50:09;;;;;;;10.87;8.70;;;10.50;99.90;;;;;;5072158;28;20224;-74
2023/03/02 11:52:38;;;;;;;10.60;8.07;;;10.50;99.90;;;;;;5072138;28;20504;-73
2023/03/02 11:55:13;;;;;;;14.57;7.70;;;10.40;99.90;;;;;;5072314;28;20174;-73
2023/03/02 11:57:48;;;;;;;10.40;7.50;;;10.20;99.90;;;;;;5072127;28;20787;-73
2023/03/02 12:00:37;;;;;;;11.07;8.40;;;10.00;99.90;;;;;;5072064;28;20570;-73
2023/03/02 12:03:15;;;;;;;11.13;7.63;;;9.90;99.90;;;;;;5072015;28;20171;-74
2023/03/02 12:05:57;;;;;;;9.10;7.07;;;9.90;99.90;;;;;;5072188;28;20164;-74
2023/03/02 12:08:23;;;;;;;9.63;7.33;;;9.80;99.90;;;;;;5071840;28;20177;-73
2023/03/02 12:11:15;;;;;;;8.77;7.30;;;9.70;99.90;;;;;;5072161;28;20175;-73
2023/03/02 12:13:42;;;;;;;10.50;7.50;;;9.70;99.90;;;;;;5078492;28;20592;-71
2023/03/02 12:16:34;;;;;;;12.13;7.47;;;9.80;99.90;;;;;;5077897;28;20538;-73
2023/03/02 12:19:15;;;;;;;8.23;6.87;;;9.80;99.90;;;;;;5075797;28;20160;-76
2023/03/02 12:22:01;;;;;;;10.27;7.60;;;9.90;99.90;;;;;;5075394;28;20543;-73
2023/03/02 12:24:33;;;;;;;9.40;7.20;;;9.90;99.90;;;;;;5075686;28;20623;-74
2023/03/02 12:27:03;;;;;;;10.57;7.70;;;9.90;99.90;;;;;;5074270;28;20183;-74
2023/03/02 12:29:40;;;;;;;8.60;7.00;;;9.90;99.90;;;;;;5075561;28;20532;-75
2023/03/02 12:32:20;;;;;;;11.43;7.30;;;10.10;99.90;;;;;;5075514;28;20175;-76
2023/03/02 12:35:08;;;;;;;12.50;7.43;;;10.20;99.90;;;;;;5075601;28;20244;-72
2023/03/02 12:37:55;;;;;;;8.33;6.67;;;10.40;99.90;;;;;;5075518;28;20184;-75
2023/03/02 12:40:30;;;;;;;8.83;7.13;;;10.50;99.70;;;;;;5075430;28;20198;-77
2023/03/02 12:43:26;;;;;;;9.17;6.97;;;10.50;99.50;;;;;;5073800;28;20240;-76
2023/03/02 12:46:24;;;;;;;6.90;6.20;;;10.60;99.00;;;;;;5074216;28;20168;-77
2023/03/02 12:49:02;;;;;;;7.83;6.30;;;10.60;99.10;;;;;;5075206;28;20262;-77
2023/03/02 12:51:50;;;;;;;8.73;6.87;;;10.60;99.40;;;;;;5075760;28;20173;-76
2023/03/02 12:54:20;;;;;;;9.07;6.83;;;10.50;99.20;;;;;;5076266;28;20215;-77
2023/03/02 12:56:46;;;;;;;10.13;6.80;;;10.40;99.30;;;;;;5075010;28;20190;-74
2023/03/02 12:59:27;;;;;;;8.40;7.07;;;10.40;99.70;;;;;;5075210;28;20182;-73
2023/03/02 13:02:12;;;;;;;9.67;7.10;;;10.40;99.40;;;;;;5082940;28;20207;-75
2023/03/02 13:04:38;;;;;;;7.20;6.43;;;10.40;99.30;;;;;;5078621;28;20163;-73